createdAt,value
2018-08-22T00:00:56.913Z,93.77
2018-08-22T00:01:56.929Z,93.67
2018-08-22T00:02:56.876Z,92.71
2018-08-22T00:03:56.941Z,93.38
2018-08-22T00:04:56.836Z,93.77
2018-08-22T00:05:56.854Z,93.67
2018-08-22T00:06:56.797Z,93.82
2018-08-22T00:07:56.865Z,93.57
2018-08-22T00:08:56.811Z,93.87
2018-08-22T00:09:56.774Z,94.34
2018-08-22T00:10:56.714Z,94.59
2018-08-22T00:11:56.788Z,94.20
2018-08-22T00:12:56.678Z,93.82
2018-08-22T00:13:56.697Z,93.72
2018-08-22T00:14:56.635Z,93.91
2018-08-22T00:15:56.707Z,94.64
2018-08-22T00:16:56.598Z,94.73
2018-08-22T00:17:56.619Z,94.59
2018-08-22T00:18:56.551Z,95.07
2018-08-22T00:19:56.631Z,95.36
2018-08-22T00:20:56.518Z,94.87
2018-08-22T00:21:56.542Z,94.30
2018-08-22T00:22:56.476Z,94.40
2018-08-22T00:23:56.554Z,94.30
2018-08-22T00:24:56.437Z,94.49
2018-08-22T00:25:56.465Z,94.97
2018-08-22T00:26:56.442Z,94.68
2018-08-22T00:27:56.482Z,95.36
2018-08-22T00:28:56.384Z,95.45
2018-08-22T00:29:56.387Z,95.26
2018-08-22T00:30:56.321Z,95.84
2018-08-22T00:31:56.399Z,95.98
2018-08-22T00:32:56.277Z,96.03
2018-08-22T00:33:56.312Z,96.32
2018-08-22T00:34:56.234Z,95.70
2018-08-22T00:35:56.324Z,95.79
2018-08-22T00:36:56.198Z,95.98
2018-08-22T00:37:56.231Z,95.79
2018-08-22T00:38:56.152Z,95.98
2018-08-22T00:39:56.244Z,95.79
2018-08-22T00:40:56.115Z,95.98
2018-08-22T00:41:56.153Z,95.89
2018-08-22T00:42:56.075Z,95.89
2018-08-22T00:43:56.166Z,96.08
2018-08-22T00:44:56.034Z,95.70
2018-08-22T00:45:56.076Z,95.98
2018-08-22T00:46:55.992Z,96.08
2018-08-22T00:47:55.988Z,96.08
2018-08-22T00:48:55.955Z,96.47
2018-08-22T00:49:56.001Z,96.66
2018-08-22T00:50:55.915Z,96.85
2018-08-22T00:51:55.912Z,97.04
2018-08-22T00:52:55.871Z,97.33
2018-08-22T00:53:55.925Z,97.24
2018-08-22T00:54:55.842Z,97.33
2018-08-22T00:55:55.840Z,97.71
2018-08-22T00:56:55.792Z,96.66
2018-08-22T00:57:55.851Z,97.62
2018-08-22T00:58:55.753Z,97.52
2018-08-22T00:59:55.759Z,97.52
2018-08-22T01:00:55.712Z,97.62
2018-08-22T01:01:55.772Z,97.42
2018-08-22T01:02:55.668Z,97.62
2018-08-22T01:03:56.706Z,97.71
2018-08-22T01:04:55.630Z,97.71
2018-08-22T01:05:55.694Z,97.47
2018-08-22T01:06:55.588Z,97.47
2018-08-22T01:07:55.597Z,97.76
2018-08-22T01:08:55.548Z,97.67
2018-08-22T01:09:55.619Z,97.47
2018-08-22T01:10:55.505Z,97.19
2018-08-22T01:11:55.524Z,98.53
2018-08-22T01:12:55.465Z,97.67
2018-08-22T01:13:55.534Z,98.24
2018-08-22T01:14:55.427Z,97.76
2018-08-22T01:15:55.446Z,97.86
2018-08-22T01:16:55.384Z,97.38
2018-08-22T01:17:55.461Z,97.71
2018-08-22T01:18:55.344Z,98.19
2018-08-22T01:19:55.367Z,98.05
2018-08-22T01:20:55.302Z,97.96
2018-08-22T01:21:55.383Z,98.19
2018-08-22T01:22:55.267Z,98.14
2018-08-22T01:23:55.290Z,98.39
2018-08-22T01:24:55.223Z,98.34
2018-08-22T01:25:55.301Z,98.19
2018-08-22T01:26:55.174Z,98.05
2018-08-22T01:27:55.210Z,98.24
2018-08-22T01:28:55.140Z,98.44
2018-08-22T01:29:55.224Z,98.68
2018-08-22T01:30:55.102Z,98.34
2018-08-22T01:31:55.135Z,98.05
2018-08-22T01:32:55.056Z,98.24
2018-08-22T01:33:55.148Z,98.53
2018-08-22T01:34:55.014Z,98.14
2018-08-22T01:35:55.058Z,98.63
2018-08-22T01:36:54.972Z,98.14
2018-08-22T01:37:54.968Z,98.05
2018-08-22T01:38:54.933Z,98.34
2018-08-22T01:39:54.983Z,98.24
2018-08-22T01:40:54.895Z,98.24
2018-08-22T01:41:54.888Z,98.24
2018-08-22T01:42:54.850Z,98.53
2018-08-22T01:43:54.904Z,98.72
2018-08-22T01:44:54.809Z,99.11
2018-08-22T01:45:54.813Z,98.72
2018-08-22T01:46:54.767Z,99.68
2018-08-22T01:47:54.825Z,99.49
2018-08-22T01:48:54.724Z,99.30
2018-08-22T01:49:57.503Z,98.63
2018-08-22T01:50:54.701Z,98.44
2018-08-22T01:51:54.747Z,98.91
2018-08-22T01:52:54.642Z,98.44
2018-08-22T01:53:54.661Z,98.34
2018-08-22T01:54:54.605Z,98.63
2018-08-22T01:55:54.669Z,98.91
2018-08-22T01:56:54.563Z,98.91
2018-08-22T01:57:54.583Z,98.91
2018-08-22T01:58:54.599Z,99.11
2018-08-22T01:59:54.592Z,99.01
2018-08-22T02:00:54.485Z,99.30
2018-08-22T02:01:54.501Z,99.59
2018-08-22T02:02:54.438Z,99.78
2018-08-22T02:03:54.513Z,99.68
2018-08-22T02:04:54.395Z,99.49
2018-08-22T02:05:54.423Z,99.68
2018-08-22T02:06:54.356Z,99.21
2018-08-22T02:07:54.436Z,99.21
2018-08-22T02:08:54.317Z,99.49
2018-08-22T02:09:54.346Z,99.99
2018-08-22T02:10:54.275Z,99.99
2018-08-22T02:11:54.358Z,99.40
2018-08-22T02:12:54.231Z,99.88
2018-08-22T02:13:54.270Z,99.40
2018-08-22T02:14:54.186Z,98.44
2018-08-22T02:15:54.284Z,99.25
2018-08-22T02:16:54.151Z,99.21
2018-08-22T02:17:54.194Z,99.83
2018-08-22T02:18:54.110Z,99.78
2018-08-22T02:19:54.105Z,99.73
2018-08-22T02:20:54.068Z,99.63
2018-08-22T02:21:54.120Z,99.15
2018-08-22T02:22:54.024Z,99.35
2018-08-22T02:23:54.028Z,99.73
2018-08-22T02:24:53.989Z,99.25
2018-08-22T02:25:54.039Z,99.44
2018-08-22T02:26:53.947Z,99.35
2018-08-22T02:27:53.953Z,99.99
2018-08-22T02:28:53.902Z,99.99
2018-08-22T02:29:53.969Z,99.92
2018-08-22T02:30:53.859Z,98.96
2018-08-22T02:31:53.869Z,99.73
2018-08-22T02:32:53.816Z,99.35
2018-08-22T02:33:53.882Z,99.44
2018-08-22T02:34:53.774Z,99.73
2018-08-22T02:35:53.790Z,99.44
2018-08-22T02:36:53.732Z,99.44
2018-08-22T02:37:53.804Z,99.54
2018-08-22T02:38:53.694Z,99.99
2018-08-22T02:39:53.713Z,99.99
2018-08-22T02:40:53.646Z,99.78
2018-08-22T02:41:53.729Z,99.99
2018-08-22T02:42:53.608Z,99.99
2018-08-22T02:43:53.636Z,99.99
2018-08-22T02:44:53.568Z,99.97
2018-08-22T02:45:53.650Z,99.99
2018-08-22T02:46:53.526Z,99.99
2018-08-22T02:47:53.559Z,99.99
2018-08-22T02:48:53.484Z,99.99
2018-08-22T02:49:53.571Z,99.99
2018-08-22T02:50:53.438Z,99.99
2018-08-22T02:51:53.482Z,99.99
2018-08-22T02:52:53.396Z,99.99
2018-08-22T02:53:53.395Z,99.99
2018-08-22T02:54:53.355Z,99.99
2018-08-22T02:55:53.407Z,99.99
2018-08-22T02:56:53.314Z,99.99
2018-08-22T02:57:53.313Z,99.99
2018-08-22T02:58:53.275Z,99.99
2018-08-22T02:59:53.329Z,99.99
2018-08-22T03:00:53.230Z,99.99
2018-08-22T03:01:53.237Z,99.99
2018-08-22T03:02:53.184Z,99.99
2018-08-22T03:03:53.250Z,99.99
2018-08-22T03:04:53.145Z,99.99
2018-08-22T03:05:53.162Z,99.99
2018-08-22T03:06:53.103Z,99.99
2018-08-22T03:07:53.175Z,99.99
2018-08-22T03:08:53.063Z,99.99
2018-08-22T03:09:53.084Z,99.99
2018-08-22T03:10:53.021Z,99.99
2018-08-22T03:11:53.092Z,99.99
2018-08-22T03:12:52.976Z,99.99
2018-08-22T03:13:53.005Z,99.99
2018-08-22T03:14:52.934Z,99.99
2018-08-22T03:15:53.015Z,99.99
2018-08-22T03:16:52.894Z,99.99
2018-08-22T03:17:52.931Z,99.99
2018-08-22T03:18:52.850Z,99.99
2018-08-22T03:19:52.940Z,99.99
2018-08-22T03:20:52.810Z,99.99
2018-08-22T03:21:52.850Z,99.99
2018-08-22T03:22:52.774Z,99.99
2018-08-22T03:23:52.766Z,99.99
2018-08-22T03:24:52.732Z,99.99
2018-08-22T03:25:52.776Z,99.99
2018-08-22T03:26:52.768Z,99.99
2018-08-22T03:27:52.684Z,99.99
2018-08-22T03:28:52.636Z,99.99
2018-08-22T03:29:52.701Z,99.99
2018-08-22T03:30:52.621Z,99.99
2018-08-22T03:31:52.607Z,99.99
2018-08-22T03:32:52.559Z,99.99
2018-08-22T03:33:52.618Z,99.99
2018-08-22T03:34:52.515Z,99.99
2018-08-22T03:35:52.529Z,99.99
2018-08-22T03:36:52.475Z,99.99
2018-08-22T03:37:52.544Z,99.99
2018-08-22T03:38:52.428Z,99.99
2018-08-22T03:39:52.452Z,99.99
2018-08-22T03:40:52.385Z,99.99
2018-08-22T03:41:52.465Z,99.99
2018-08-22T03:42:52.345Z,99.99
2018-08-22T03:43:52.373Z,99.99
2018-08-22T03:44:52.304Z,99.99
2018-08-22T03:45:52.386Z,99.99
2018-08-22T03:46:52.261Z,99.99
2018-08-22T03:47:52.293Z,99.99
2018-08-22T03:48:52.217Z,99.99
2018-08-22T03:49:52.312Z,99.99
2018-08-22T03:50:52.173Z,99.99
2018-08-22T03:51:52.219Z,99.99
2018-08-22T03:52:52.132Z,99.99
2018-08-22T03:53:52.129Z,99.99
2018-08-22T03:54:52.092Z,99.99
2018-08-22T03:55:52.142Z,99.99
2018-08-22T03:56:52.052Z,99.99
2018-08-22T03:57:52.050Z,99.99
2018-08-22T03:58:52.005Z,99.99
2018-08-22T03:59:52.061Z,99.99
2018-08-22T04:00:51.967Z,99.99
2018-08-22T04:01:51.971Z,99.99
2018-08-22T04:02:51.924Z,99.99
2018-08-22T04:03:51.987Z,99.99
2018-08-22T04:04:51.878Z,99.99
2018-08-22T04:05:51.892Z,99.99
2018-08-22T04:06:51.839Z,99.99
2018-08-22T04:07:51.907Z,99.99
2018-08-22T04:08:51.797Z,99.99
2018-08-22T04:09:51.818Z,99.99
2018-08-22T04:10:51.752Z,99.99
2018-08-22T04:11:51.830Z,99.99
2018-08-22T04:12:51.710Z,99.99
2018-08-22T04:13:51.740Z,99.99
2018-08-22T04:14:51.670Z,99.99
2018-08-22T04:15:51.752Z,99.99
2018-08-22T04:16:51.625Z,99.99
2018-08-22T04:17:51.665Z,99.99
2018-08-22T04:18:51.586Z,99.99
2018-08-22T04:19:51.678Z,99.99
2018-08-22T04:20:51.544Z,99.99
2018-08-22T04:21:51.628Z,99.99
2018-08-22T04:22:51.496Z,99.99
2018-08-22T04:23:51.498Z,99.99
2018-08-22T04:24:51.479Z,99.99
2018-08-22T04:25:51.510Z,99.99
2018-08-22T04:26:51.408Z,99.99
2018-08-22T04:27:51.414Z,99.99
2018-08-22T04:28:51.370Z,99.99
2018-08-22T04:29:51.433Z,99.99
2018-08-22T04:30:51.345Z,99.99
2018-08-22T04:31:51.338Z,99.99
2018-08-22T04:32:51.287Z,99.99
2018-08-22T04:33:51.352Z,99.99
2018-08-22T04:34:51.247Z,99.99
2018-08-22T04:35:51.261Z,99.99
2018-08-22T04:36:51.204Z,99.99
2018-08-22T04:37:51.274Z,99.99
2018-08-22T04:38:51.163Z,99.99
2018-08-22T04:39:51.187Z,99.99
2018-08-22T04:40:51.113Z,99.99
2018-08-22T04:41:51.202Z,99.99
2018-08-22T04:42:51.072Z,99.99
2018-08-22T04:43:51.105Z,99.99
2018-08-22T04:44:51.030Z,99.99
2018-08-22T04:45:51.118Z,99.99
2018-08-22T04:46:50.995Z,99.99
2018-08-22T04:47:51.028Z,99.99
2018-08-22T04:48:50.944Z,99.99
2018-08-22T04:49:50.943Z,99.99
2018-08-22T04:50:50.901Z,99.99
2018-08-22T04:51:50.954Z,99.99
2018-08-22T04:52:50.860Z,99.99
2018-08-22T04:53:50.865Z,99.99
2018-08-22T04:54:50.816Z,99.99
2018-08-22T04:55:50.879Z,99.99
2018-08-22T04:56:50.781Z,99.99
2018-08-22T04:57:50.790Z,99.99
2018-08-22T04:58:50.735Z,99.99
2018-08-22T04:59:50.803Z,99.99
2018-08-22T05:00:50.689Z,99.99
2018-08-22T05:01:50.708Z,99.99
2018-08-22T05:02:50.651Z,99.99
2018-08-22T05:03:50.722Z,99.99
2018-08-22T05:04:50.608Z,99.99
2018-08-22T05:05:50.637Z,99.99
2018-08-22T05:06:50.568Z,99.99
2018-08-22T05:07:50.650Z,99.99
2018-08-22T05:08:50.520Z,99.99
2018-08-22T05:09:50.556Z,99.99
2018-08-22T05:10:50.478Z,99.99
2018-08-22T05:11:50.568Z,99.99
2018-08-22T05:12:50.436Z,99.99
2018-08-22T05:13:50.482Z,99.99
2018-08-22T05:14:50.398Z,99.99
2018-08-22T05:15:50.384Z,99.99
2018-08-22T05:16:50.348Z,99.99
2018-08-22T05:17:50.397Z,99.99
2018-08-22T05:18:50.307Z,99.99
2018-08-22T05:19:50.311Z,99.99
2018-08-22T05:20:50.263Z,99.99
2018-08-22T05:21:50.319Z,99.99
2018-08-22T05:22:50.223Z,99.99
2018-08-22T05:23:50.230Z,99.99
2018-08-22T05:24:50.263Z,99.99
2018-08-22T05:25:50.243Z,99.99
2018-08-22T05:26:50.136Z,99.99
2018-08-22T05:27:50.155Z,99.99
2018-08-22T05:28:50.094Z,99.99
2018-08-22T05:29:50.165Z,99.99
2018-08-22T05:30:50.051Z,99.99
2018-08-22T05:31:50.073Z,99.99
2018-08-22T05:32:50.011Z,99.99
2018-08-22T05:33:50.087Z,99.99
2018-08-22T05:34:49.970Z,99.99
2018-08-22T05:35:49.997Z,99.99
2018-08-22T05:36:49.929Z,99.99
2018-08-22T05:37:50.009Z,99.99
2018-08-22T05:38:49.883Z,99.99
2018-08-22T05:39:49.919Z,99.99
2018-08-22T05:40:49.843Z,99.99
2018-08-22T05:41:49.831Z,99.99
2018-08-22T05:42:49.794Z,99.99
2018-08-22T05:43:49.842Z,99.99
2018-08-22T05:44:49.753Z,99.99
2018-08-22T05:45:49.752Z,99.99
2018-08-22T05:46:49.706Z,99.99
2018-08-22T05:47:49.763Z,99.99
2018-08-22T05:48:49.670Z,99.99
2018-08-22T05:49:49.674Z,99.99
2018-08-22T05:50:49.622Z,99.99
2018-08-22T05:51:49.688Z,99.99
2018-08-22T05:52:49.587Z,99.99
2018-08-22T05:53:49.601Z,99.99
2018-08-22T05:54:49.545Z,99.99
2018-08-22T05:55:49.613Z,99.99
2018-08-22T05:56:49.497Z,99.99
2018-08-22T05:57:49.522Z,99.99
2018-08-22T05:58:49.454Z,99.99
2018-08-22T05:59:49.538Z,99.99
2018-08-22T06:00:49.416Z,99.99
2018-08-22T06:01:49.448Z,99.99
2018-08-22T06:02:49.369Z,99.99
2018-08-22T06:03:49.459Z,99.99
2018-08-22T06:04:49.328Z,99.99
2018-08-22T06:05:49.370Z,99.99
2018-08-22T06:06:49.285Z,99.99
2018-08-22T06:07:49.380Z,99.99
2018-08-22T06:08:49.243Z,99.99
2018-08-22T06:09:49.286Z,99.99
2018-08-22T06:10:49.200Z,99.99
2018-08-22T06:11:49.201Z,99.99
2018-08-22T06:12:49.164Z,99.99
2018-08-22T06:13:49.208Z,99.99
2018-08-22T06:14:49.116Z,99.99
2018-08-22T06:15:49.139Z,99.99
2018-08-22T06:16:49.083Z,99.99
2018-08-22T06:17:49.133Z,99.99
2018-08-22T06:18:49.036Z,99.99
2018-08-22T06:19:49.042Z,99.99
2018-08-22T06:20:48.993Z,99.99
2018-08-22T06:21:49.060Z,99.99
2018-08-22T06:22:48.952Z,99.99
2018-08-22T06:23:48.967Z,99.73
2018-08-22T06:24:48.909Z,99.78
2018-08-22T06:25:48.980Z,98.96
2018-08-22T06:26:48.870Z,98.82
2018-08-22T06:27:48.887Z,98.63
2018-08-22T06:28:48.825Z,98.34
2018-08-22T06:29:48.903Z,98.44
2018-08-22T06:30:48.781Z,98.63
2018-08-22T06:31:48.810Z,98.82
2018-08-22T06:32:48.747Z,97.76
2018-08-22T06:33:48.823Z,97.09
2018-08-22T06:34:48.697Z,97.19
2018-08-22T06:35:48.733Z,96.12
2018-08-22T06:36:48.662Z,96.42
2018-08-22T06:37:48.746Z,96.37
2018-08-22T06:38:48.618Z,97.14
2018-08-22T06:39:48.655Z,97.72
2018-08-22T06:40:48.579Z,98.00
2018-08-22T06:41:48.668Z,98.39
2018-08-22T06:42:48.538Z,98.49
2018-08-22T06:43:48.578Z,98.39
2018-08-22T06:44:48.495Z,98.39
2018-08-22T06:45:48.489Z,98.39
2018-08-22T06:46:48.456Z,99.16
2018-08-22T06:47:48.500Z,98.97
2018-08-22T06:48:48.419Z,99.06
2018-08-22T06:49:48.413Z,99.26
2018-08-22T06:50:48.376Z,98.58
2018-08-22T06:51:48.464Z,98.87
2018-08-22T06:52:48.333Z,98.24
2018-08-22T06:53:48.376Z,98.24
2018-08-22T06:54:48.294Z,97.57
2018-08-22T06:55:48.390Z,97.19
2018-08-22T06:56:48.255Z,96.80
2018-08-22T06:57:48.303Z,97.09
2018-08-22T06:58:48.211Z,95.84
2018-08-22T06:59:48.317Z,95.16
2018-08-22T07:00:48.173Z,93.62
2018-08-22T07:01:48.228Z,93.28
2018-08-22T07:02:48.132Z,92.61
2018-08-22T07:03:48.243Z,91.93
2018-08-22T07:04:48.091Z,91.45
2018-08-22T07:05:48.154Z,92.13
2018-08-22T07:06:48.051Z,91.45
2018-08-22T07:07:48.168Z,91.06
2018-08-22T07:08:48.013Z,90.00
2018-08-22T07:09:48.079Z,89.86
2018-08-22T07:10:47.970Z,90.24
2018-08-22T07:11:48.095Z,88.51
2018-08-22T07:12:47.933Z,88.79
2018-08-22T07:13:48.006Z,87.83
2018-08-22T07:14:47.892Z,88.22
2018-08-22T07:15:48.022Z,87.64
2018-08-22T07:16:47.854Z,87.93
2018-08-22T07:17:47.933Z,87.93
2018-08-22T07:18:47.812Z,88.12
2018-08-22T07:19:47.795Z,87.54
2018-08-22T07:20:47.903Z,87.93
2018-08-22T07:21:47.756Z,87.64
2018-08-22T07:22:47.865Z,87.68
2018-08-22T07:23:47.770Z,87.40
2018-08-22T07:24:47.692Z,86.43
2018-08-22T07:25:47.787Z,86.82
2018-08-22T07:26:47.651Z,85.08
2018-08-22T07:27:47.696Z,85.46
2018-08-22T07:28:47.613Z,86.04
2018-08-22T07:29:47.710Z,85.37
2018-08-22T07:30:47.576Z,85.27
2018-08-22T07:31:47.623Z,85.66
2018-08-22T07:32:47.534Z,85.89
2018-08-22T07:33:47.532Z,86.86
2018-08-22T07:34:47.495Z,87.05
2018-08-22T07:35:47.588Z,86.76
2018-08-22T07:36:47.455Z,87.15
2018-08-22T07:37:47.460Z,86.57
2018-08-22T07:38:47.415Z,86.96
2018-08-22T07:39:47.477Z,87.82
2018-08-22T07:40:47.382Z,85.70
2018-08-22T07:41:47.387Z,85.12
2018-08-22T07:42:47.339Z,86.18
2018-08-22T07:43:47.404Z,86.08
2018-08-22T07:44:47.298Z,86.86
2018-08-22T07:45:47.311Z,87.53
2018-08-22T07:46:47.263Z,87.63
2018-08-22T07:47:47.326Z,86.08
2018-08-22T07:48:47.220Z,85.60
2018-08-22T07:49:47.238Z,85.70
2018-08-22T07:50:47.188Z,87.05
2018-08-22T07:51:47.259Z,87.29
2018-08-22T07:52:47.147Z,86.22
2018-08-22T07:53:47.162Z,86.42
2018-08-22T07:54:47.104Z,86.52
2018-08-22T07:55:47.177Z,86.22
2018-08-22T07:56:47.068Z,85.55
2018-08-22T07:57:47.095Z,86.13
2018-08-22T07:58:47.026Z,85.94
2018-08-22T07:59:47.109Z,85.94
2018-08-22T08:00:46.991Z,84.68
2018-08-22T08:01:47.025Z,84.97
2018-08-22T08:02:46.951Z,84.39
2018-08-22T08:03:47.032Z,84.05
2018-08-22T08:04:46.941Z,83.47
2018-08-22T08:05:46.951Z,82.98
2018-08-22T08:06:46.873Z,82.40
2018-08-22T08:07:46.958Z,82.02
2018-08-22T08:08:47.010Z,82.89
2018-08-22T08:09:46.868Z,82.60
2018-08-22T08:10:46.807Z,82.69
2018-08-22T08:11:46.886Z,82.11
2018-08-22T08:12:46.763Z,82.11
2018-08-22T08:13:46.793Z,81.92
2018-08-22T08:14:46.723Z,82.98
2018-08-22T08:15:46.809Z,81.73
2018-08-22T08:16:46.689Z,82.11
2018-08-22T08:17:46.722Z,82.40
2018-08-22T08:18:46.649Z,83.03
2018-08-22T08:19:46.736Z,83.22
2018-08-22T08:20:46.610Z,83.12
2018-08-22T08:21:46.598Z,82.54
2018-08-22T08:22:46.572Z,82.73
2018-08-22T08:23:46.664Z,82.73
2018-08-22T08:24:46.540Z,81.87
2018-08-22T08:25:46.572Z,81.52
2018-08-22T08:26:46.594Z,81.32
2018-08-22T08:27:46.585Z,81.81
2018-08-22T08:28:46.465Z,82.39
2018-08-22T08:29:46.500Z,81.23
2018-08-22T08:30:46.425Z,79.49
2018-08-22T08:31:46.513Z,79.58
2018-08-22T08:32:46.389Z,80.46
2018-08-22T08:33:46.425Z,80.36
2018-08-22T08:34:46.349Z,80.36
2018-08-22T08:35:46.470Z,80.55
2018-08-22T08:36:46.346Z,80.59
2018-08-22T08:37:46.350Z,79.14
2018-08-22T08:38:46.274Z,79.52
2018-08-22T08:39:46.365Z,78.46
2018-08-22T08:40:46.241Z,78.75
2018-08-22T08:41:46.371Z,78.46
2018-08-22T08:42:46.205Z,78.56
2018-08-22T08:43:46.291Z,78.46
2018-08-22T08:44:46.167Z,78.46
2018-08-22T08:45:46.202Z,78.17
2018-08-22T08:46:46.142Z,76.91
2018-08-22T08:47:46.215Z,77.30
2018-08-22T08:48:46.096Z,77.59
2018-08-22T08:49:46.129Z,78.21
2018-08-22T08:50:46.056Z,76.28
2018-08-22T08:51:46.163Z,76.14
2018-08-22T08:52:46.025Z,76.86
2018-08-22T08:53:46.055Z,75.89
2018-08-22T08:54:45.983Z,76.18
2018-08-22T08:55:46.091Z,77.63
2018-08-22T08:56:45.948Z,75.98
2018-08-22T08:57:45.983Z,75.98
2018-08-22T08:58:45.915Z,76.02
2018-08-22T08:59:45.996Z,76.28
2018-08-22T09:00:45.880Z,75.44
2018-08-22T09:01:45.907Z,75.24
2018-08-22T09:02:45.839Z,77.19
2018-08-22T09:03:45.932Z,75.63
2018-08-22T09:04:45.804Z,74.86
2018-08-22T09:05:45.836Z,74.12
2018-08-22T09:06:45.767Z,74.70
2018-08-22T09:07:45.849Z,74.90
2018-08-22T09:08:45.736Z,73.96
2018-08-22T09:09:45.760Z,72.80
2018-08-22T09:10:45.741Z,72.99
2018-08-22T09:11:45.776Z,73.09
2018-08-22T09:12:45.663Z,72.45
2018-08-22T09:13:45.686Z,72.83
2018-08-22T09:14:45.630Z,71.28
2018-08-22T09:15:45.771Z,71.61
2018-08-22T09:16:45.599Z,71.61
2018-08-22T09:17:46.652Z,71.64
2018-08-22T09:18:45.559Z,70.03
2018-08-22T09:19:45.627Z,70.22
2018-08-22T09:20:45.523Z,69.06
2018-08-22T09:21:45.542Z,66.86
2018-08-22T09:22:45.495Z,66.96
2018-08-22T09:23:45.555Z,65.98
2018-08-22T09:24:45.455Z,66.17
2018-08-22T09:25:45.471Z,66.50
2018-08-22T09:26:45.427Z,66.79
2018-08-22T09:27:45.487Z,62.35
2018-08-22T09:28:45.397Z,64.78
2018-08-22T09:29:45.402Z,65.20
2018-08-22T09:30:45.357Z,64.07
2018-08-22T09:31:45.412Z,65.26
2018-08-22T09:32:45.324Z,63.42
2018-08-22T09:33:45.344Z,61.21
2018-08-22T09:34:45.429Z,62.12
2018-08-22T09:35:45.296Z,63.09
2018-08-22T09:36:45.446Z,61.82
2018-08-22T09:37:45.248Z,60.55
2018-08-22T09:38:45.227Z,60.75
2018-08-22T09:39:45.236Z,61.53
2018-08-22T09:40:45.369Z,60.29
2018-08-22T09:41:45.174Z,60.29
2018-08-22T09:42:45.282Z,59.05
2018-08-22T09:43:45.141Z,58.56
2018-08-22T09:44:45.296Z,56.90
2018-08-22T09:45:45.113Z,57.85
2018-08-22T09:46:45.215Z,59.34
2018-08-22T09:47:45.079Z,58.07
2018-08-22T09:48:45.220Z,57.23
2018-08-22T09:49:45.047Z,58.69
2018-08-22T09:50:45.256Z,57.64
2018-08-22T09:51:45.018Z,57.35
2018-08-22T09:52:45.145Z,57.38
2018-08-22T09:53:44.986Z,56.52
2018-08-22T09:54:45.322Z,55.18
2018-08-22T09:55:44.957Z,54.30
2018-08-22T09:56:45.078Z,53.33
2018-08-22T09:57:44.927Z,53.13
2018-08-22T09:58:45.088Z,53.42
2018-08-22T09:59:44.914Z,53.91
2018-08-22T10:00:46.070Z,53.91
2018-08-22T10:01:44.871Z,53.23
2018-08-22T10:02:44.909Z,52.17
2018-08-22T10:03:44.841Z,53.06
2018-08-22T10:04:44.923Z,51.86
2018-08-22T10:05:44.819Z,53.10
2018-08-22T10:06:44.921Z,54.01
2018-08-22T10:07:44.782Z,53.69
2018-08-22T10:08:44.848Z,53.13
2018-08-22T10:09:44.752Z,53.81
2018-08-22T10:10:44.861Z,53.10
2018-08-22T10:11:44.724Z,53.91
2018-08-22T10:12:44.774Z,53.23
2018-08-22T10:13:44.702Z,51.27
2018-08-22T10:14:44.789Z,52.51
2018-08-22T10:15:44.668Z,53.00
2018-08-22T10:16:44.698Z,52.81
2018-08-22T10:17:44.644Z,53.20
2018-08-22T10:18:44.713Z,53.20
2018-08-22T10:19:44.715Z,51.44
2018-08-22T10:20:44.730Z,51.15
2018-08-22T10:21:44.589Z,51.56
2018-08-22T10:22:44.639Z,50.59
2018-08-22T10:23:44.561Z,51.44
2018-08-22T10:24:44.661Z,51.07
2018-08-22T10:25:44.533Z,53.16
2018-08-22T10:26:44.566Z,51.20
2018-08-22T10:27:44.503Z,50.24
2018-08-22T10:28:44.583Z,49.68
2018-08-22T10:29:44.480Z,47.33
2018-08-22T10:30:44.599Z,49.80
2018-08-22T10:31:44.454Z,49.51
2018-08-22T10:32:44.554Z,49.14
2018-08-22T10:33:44.421Z,47.37
2018-08-22T10:34:44.518Z,46.88
2018-08-22T10:35:44.398Z,47.27
2018-08-22T10:36:44.538Z,46.98
2018-08-22T10:37:44.372Z,48.72
2018-08-22T10:38:44.453Z,48.43
2018-08-22T10:39:44.364Z,48.13
2018-08-22T10:40:44.466Z,48.03
2018-08-22T10:41:44.321Z,46.76
2018-08-22T10:42:44.379Z,48.92
2018-08-22T10:43:44.296Z,48.52
2018-08-22T10:44:44.391Z,48.82
2018-08-22T10:45:44.271Z,46.86
2018-08-22T10:46:44.406Z,46.95
2018-08-22T10:47:44.248Z,46.86
2018-08-22T10:48:44.317Z,47.91
2018-08-22T10:49:44.220Z,49.77
2018-08-22T10:50:44.397Z,48.80
2018-08-22T10:51:44.193Z,48.30
2018-08-22T10:52:44.348Z,48.52
2018-08-22T10:53:44.173Z,48.35
2018-08-22T10:54:44.257Z,47.59
2018-08-22T10:55:44.149Z,44.84
2018-08-22T10:56:44.273Z,49.65
2018-08-22T10:57:44.127Z,45.24
2018-08-22T10:58:46.233Z,46.12
2018-08-22T10:59:44.099Z,44.35
2018-08-22T11:00:44.140Z,44.84
2018-08-22T11:01:44.078Z,44.55
2018-08-22T11:02:44.216Z,45.04
2018-08-22T11:03:44.053Z,46.02
2018-08-22T11:04:44.196Z,45.53
2018-08-22T11:05:44.036Z,46.12
2018-08-22T11:06:44.136Z,46.41
2018-08-22T11:07:44.008Z,45.45
2018-08-22T11:08:44.154Z,45.73
2018-08-22T11:09:43.992Z,46.73
2018-08-22T11:10:44.065Z,42.79
2018-08-22T11:11:43.951Z,44.06
2018-08-22T11:12:44.084Z,43.65
2018-08-22T11:13:43.940Z,45.14
2018-08-22T11:14:43.991Z,46.51
2018-08-22T11:15:44.088Z,44.55
2018-08-22T11:16:44.010Z,43.27
2018-08-22T11:17:43.889Z,44.21
2018-08-22T11:18:43.923Z,45.17
2018-08-22T11:19:43.870Z,46.84
2018-08-22T11:20:43.933Z,46.17
2018-08-22T11:21:43.848Z,46.17
2018-08-22T11:22:43.963Z,46.78
2018-08-22T11:23:43.838Z,45.92
2018-08-22T11:24:43.859Z,45.04
2018-08-22T11:25:43.819Z,44.84
2018-08-22T11:26:43.872Z,45.04
2018-08-22T11:27:43.777Z,45.02
2018-08-22T11:28:43.783Z,46.98
2018-08-22T11:29:43.763Z,46.88
2018-08-22T11:30:43.801Z,46.30
2018-08-22T11:31:43.738Z,46.66
2018-08-22T11:32:43.811Z,47.74
2018-08-22T11:33:43.720Z,46.05
2018-08-22T11:34:43.725Z,46.84
2018-08-22T11:35:43.716Z,48.38
2018-08-22T11:36:43.740Z,47.69
2018-08-22T11:37:43.677Z,46.74
2018-08-22T11:38:43.754Z,47.13
2018-08-22T11:39:43.650Z,46.54
2018-08-22T11:40:43.667Z,46.47
2018-08-22T11:41:43.652Z,46.27
2018-08-22T11:42:43.683Z,45.19
2018-08-22T11:43:43.607Z,46.66
2018-08-22T11:44:43.743Z,45.31
2018-08-22T11:45:43.585Z,46.59
2018-08-22T11:46:43.652Z,44.27
2018-08-22T11:47:43.568Z,45.26
2018-08-22T11:48:43.619Z,45.28
2018-08-22T11:49:43.549Z,46.95
2018-08-22T11:50:43.635Z,45.20
2018-08-22T11:51:43.522Z,44.01
2018-08-22T11:52:43.548Z,44.27
2018-08-22T11:53:43.507Z,43.84
2018-08-22T11:54:43.580Z,45.49
2018-08-22T11:55:43.485Z,46.98
2018-08-22T11:56:43.576Z,45.90
2018-08-22T11:57:43.460Z,48.47
2018-08-22T11:58:43.486Z,45.43
2018-08-22T11:59:43.439Z,46.59
2018-08-22T12:00:43.500Z,44.92
2018-08-22T12:01:43.423Z,44.43
2018-08-22T12:02:43.514Z,46.39
2018-08-22T12:03:43.390Z,44.51
2018-08-22T12:04:44.451Z,45.47
2018-08-22T12:05:43.374Z,45.73
2018-08-22T12:06:43.441Z,46.81
2018-08-22T12:07:43.359Z,46.98
2018-08-22T12:08:43.451Z,47.18
2018-08-22T12:09:43.349Z,47.20
2018-08-22T12:10:43.370Z,47.79
2018-08-22T12:11:43.320Z,48.68
2018-08-22T12:12:43.311Z,48.90
2018-08-22T12:13:43.288Z,46.74
2018-08-22T12:14:43.289Z,46.76
2018-08-22T12:15:43.268Z,46.59
2018-08-22T12:16:43.308Z,45.21
2018-08-22T12:17:43.260Z,45.70
2018-08-22T12:18:43.324Z,45.29
2018-08-22T12:19:43.225Z,45.68
2018-08-22T12:20:43.234Z,45.19
2018-08-22T12:21:43.206Z,46.98
2018-08-22T12:22:43.218Z,47.77
2018-08-22T12:23:43.185Z,45.83
2018-08-22T12:24:43.272Z,45.24
2018-08-22T12:25:43.161Z,45.16
2018-08-22T12:26:43.176Z,47.42
2018-08-22T12:27:43.144Z,44.18
2018-08-22T12:28:43.197Z,43.26
2018-08-22T12:29:43.123Z,45.88
2018-08-22T12:30:44.133Z,48.52
2018-08-22T12:31:43.105Z,48.13
2018-08-22T12:32:43.098Z,46.37
2018-08-22T12:33:43.083Z,46.37
2018-08-22T12:34:43.137Z,46.78
2018-08-22T12:35:43.061Z,45.59
2018-08-22T12:36:43.159Z,45.49
2018-08-22T12:37:43.093Z,45.09
2018-08-22T12:38:43.036Z,46.56
2018-08-22T12:39:43.019Z,47.42
2018-08-22T12:40:43.015Z,47.06
2018-08-22T12:41:42.999Z,46.56
2018-08-22T12:42:42.997Z,45.31
2018-08-22T12:43:42.976Z,45.21
2018-08-22T12:44:43.015Z,45.34
2018-08-22T12:45:42.961Z,46.02
2018-08-22T12:46:43.026Z,44.84
2018-08-22T12:47:42.938Z,45.26
2018-08-22T12:48:43.038Z,45.45
2018-08-22T12:49:42.919Z,44.35
2018-08-22T12:50:42.929Z,43.94
2018-08-22T12:51:42.897Z,43.68
2018-08-22T12:52:42.964Z,45.91